Terminal Aerodrome Forecast
Issued by NWS Tampa Bay Area, FL

Home | Current Version | Previous Version | Text Only | Print | Product List | Glossary On
Versions: 1 2 3 4 5 6 7 8 9 10 11 12
582
FTUS42 KTBW 011130
TAFSRQ
TAF
KSRQ 011130Z 0112/0212 12008KT P6SM FEW250
     FM011500 16010KT P6SM FEW035 SCT250
     FM011900 24011KT P6SM SCT040 SCT250
     FM020000 28009KT P6SM FEW040 SCT250
     FM020300 11006KT P6SM SCT250=

USA.gov is the U.S. government's official web portal to all federal, state and local government web resources and services.